createdAt,value
2023-10-20T00:00:17.146Z,14.97
2023-10-20T00:02:45.669Z,15.17
2023-10-20T00:05:15.304Z,13.50
2023-10-20T00:07:45.153Z,15.40
2023-10-20T00:10:13.571Z,16.13
2023-10-20T00:12:41.783Z,16.90
2023-10-20T00:15:15.581Z,17.40
2023-10-20T00:18:38.806Z,15.63
2023-10-20T00:21:08.367Z,15.13
2023-10-20T00:23:38.296Z,15.57
2023-10-20T00:26:06.668Z,15.10
2023-10-20T00:28:34.934Z,18.90
2023-10-20T00:31:03.216Z,17.43
2023-10-20T00:33:31.372Z,13.00
2023-10-20T00:36:00.217Z,15.50
2023-10-20T00:38:28.375Z,14.23
2023-10-20T00:40:59.209Z,15.53
2023-10-20T00:43:35.668Z,19.63
2023-10-20T00:46:05.514Z,16.57
2023-10-20T00:48:34.845Z,16.70
2023-10-20T00:51:06.835Z,16.53
2023-10-20T00:53:38.076Z,17.20
2023-10-20T00:56:08.807Z,17.07
2023-10-20T00:58:38.534Z,17.87
2023-10-20T01:01:06.916Z,17.00
2023-10-20T01:03:37.779Z,15.13
2023-10-20T01:06:07.129Z,18.97
2023-10-20T01:08:35.517Z,13.60
2023-10-20T01:11:03.941Z,17.90
2023-10-20T01:13:33.730Z,20.67
2023-10-20T01:16:01.890Z,17.97
2023-10-20T01:18:31.803Z,17.93
2023-10-20T01:21:00.182Z,17.37
2023-10-20T01:23:28.509Z,15.80
2023-10-20T01:25:58.692Z,18.83
2023-10-20T01:28:26.824Z,16.70
2023-10-20T01:30:55.131Z,17.77
2023-10-20T01:33:23.267Z,16.43
2023-10-20T01:35:51.502Z,18.13
2023-10-20T01:38:19.871Z,14.80
2023-10-20T01:40:47.962Z,18.63
2023-10-20T01:43:17.648Z,15.87
2023-10-20T01:45:45.748Z,17.00
2023-10-20T01:48:14.520Z,15.67
2023-10-20T01:50:43.320Z,13.27
2023-10-20T01:53:11.820Z,15.10
2023-10-20T01:55:42.155Z,15.03
2023-10-20T01:58:10.888Z,13.17
2023-10-20T02:00:40.946Z,11.07
2023-10-20T02:03:09.785Z,14.00
2023-10-20T02:05:38.508Z,13.60
2023-10-20T02:08:09.918Z,15.17
2023-10-20T02:10:39.115Z,14.50
2023-10-20T02:13:08.459Z,15.33
2023-10-20T02:15:36.552Z,15.73
2023-10-20T02:18:08.372Z,15.67
2023-10-20T02:20:36.745Z,12.53
2023-10-20T02:23:05.041Z,17.33
2023-10-20T02:25:33.697Z,14.03
2023-10-20T02:28:01.777Z,11.57
2023-10-20T02:30:33.855Z,16.17
2023-10-20T02:33:03.471Z,18.47
2023-10-20T02:35:36.649Z,11.13
2023-10-20T02:38:05.539Z,11.73
2023-10-20T02:40:34.556Z,12.93
2023-10-20T02:43:02.979Z,15.77
2023-10-20T02:45:31.259Z,15.00
2023-10-20T02:47:59.682Z,13.50
2023-10-20T02:50:29.492Z,15.30
2023-10-20T02:52:59.099Z,12.47
2023-10-20T02:55:28.088Z,13.87
2023-10-20T02:57:56.411Z,15.23
2023-10-20T03:00:24.896Z,15.90
2023-10-20T03:02:54.718Z,14.57
2023-10-20T03:05:23.879Z,13.60
2023-10-20T03:07:52.325Z,13.23
2023-10-20T03:10:22.608Z,15.50
2023-10-20T03:12:51.387Z,13.50
2023-10-20T03:15:21.052Z,13.87
2023-10-20T03:17:49.621Z,12.80
2023-10-20T03:20:30.429Z,13.60
2023-10-20T03:22:59.890Z,15.73
2023-10-20T03:25:29.396Z,15.27
2023-10-20T03:27:57.371Z,13.67
2023-10-20T03:30:25.572Z,17.70
2023-10-20T03:32:55.237Z,15.20
2023-10-20T03:35:23.836Z,15.57
2023-10-20T03:37:55.824Z,13.20
2023-10-20T03:40:32.132Z,16.40
2023-10-20T03:43:02.325Z,13.33
2023-10-20T03:45:32.637Z,13.57
2023-10-20T03:48:02.083Z,16.53
2023-10-20T03:50:34.697Z,14.60
2023-10-20T03:53:04.180Z,16.13
2023-10-20T03:55:32.249Z,17.50
2023-10-20T03:58:02.031Z,16.17
2023-10-20T04:00:31.033Z,14.13
2023-10-20T04:02:59.709Z,15.07
2023-10-20T04:05:28.608Z,18.40
2023-10-20T04:07:57.323Z,18.17
2023-10-20T04:10:25.431Z,17.27
2023-10-20T04:12:53.641Z,21.47
2023-10-20T04:15:27.630Z,18.70
2023-10-20T04:17:58.367Z,18.03
2023-10-20T04:20:27.693Z,17.30
2023-10-20T04:22:56.180Z,19.83
2023-10-20T04:25:25.134Z,22.33
2023-10-20T04:27:59.306Z,18.60
2023-10-20T04:30:46.778Z,19.87
2023-10-20T04:33:32.511Z,24.57
2023-10-20T04:36:18.304Z,19.80
2023-10-20T04:39:03.857Z,21.90
2023-10-20T04:41:49.007Z,26.40
2023-10-20T04:44:35.021Z,18.37
2023-10-20T04:47:25.949Z,24.37
2023-10-20T04:50:12.123Z,19.47
2023-10-20T04:52:57.866Z,23.60
2023-10-20T04:55:43.311Z,18.43
2023-10-20T04:58:18.159Z,22.13
2023-10-20T05:00:47.249Z,19.30
2023-10-20T05:03:32.096Z,19.77
2023-10-20T05:06:20.863Z,23.37
2023-10-20T05:08:49.835Z,22.60
2023-10-20T05:11:18.523Z,23.23
2023-10-20T05:13:47.582Z,28.00
2023-10-20T05:16:16.043Z,26.50
2023-10-20T05:18:46.221Z,21.83
2023-10-20T05:21:14.826Z,21.83
2023-10-20T05:23:45.158Z,26.90
2023-10-20T05:26:13.679Z,20.23
2023-10-20T05:28:41.827Z,20.67
2023-10-20T05:31:10.403Z,16.83
2023-10-20T05:33:38.435Z,19.47
2023-10-20T05:36:08.693Z,19.27
2023-10-20T05:38:37.138Z,23.57
2023-10-20T05:41:05.648Z,19.83
2023-10-20T05:43:33.764Z,21.23
2023-10-20T05:46:03.866Z,19.90
2023-10-20T05:48:32.167Z,24.03
2023-10-20T05:51:00.798Z,22.37
2023-10-20T05:53:30.345Z,22.83
2023-10-20T05:55:58.957Z,20.27
2023-10-20T05:58:27.234Z,25.67
2023-10-20T06:01:03.082Z,17.63
2023-10-20T06:03:32.211Z,19.87
2023-10-20T06:06:02.179Z,24.43
2023-10-20T06:08:32.610Z,23.57
2023-10-20T06:11:04.930Z,25.27
2023-10-20T06:13:35.683Z,19.50
2023-10-20T06:16:10.924Z,19.40
2023-10-20T06:18:40.936Z,25.67
2023-10-20T06:21:14.638Z,23.60
2023-10-20T06:23:45.470Z,27.23
2023-10-20T06:26:14.266Z,31.40
2023-10-20T06:28:42.449Z,26.50
2023-10-20T06:34:14.259Z,22.80
2023-10-20T06:36:48.515Z,26.20
2023-10-20T06:39:16.709Z,27.43
2023-10-20T06:41:45.598Z,21.80
2023-10-20T06:44:13.980Z,18.93
2023-10-20T06:46:42.386Z,21.90
2023-10-20T06:49:19.572Z,20.00
2023-10-20T06:51:49.519Z,17.20
2023-10-20T06:54:17.620Z,19.17
2023-10-20T06:56:46.344Z,18.47
2023-10-20T06:59:15.455Z,19.63
2023-10-20T07:01:45.307Z,26.57
2023-10-20T07:04:16.212Z,22.77
2023-10-20T07:06:44.555Z,22.03
2023-10-20T07:09:15.250Z,16.13
2023-10-20T07:11:45.223Z,18.77
2023-10-20T07:14:13.628Z,16.17
2023-10-20T07:16:42.212Z,25.20
2023-10-20T07:19:11.548Z,14.50
2023-10-20T07:21:41.318Z,20.73
2023-10-20T07:24:10.352Z,34.73
2023-10-20T07:26:38.645Z,16.53
2023-10-20T07:29:06.969Z,20.30
2023-10-20T07:31:36.460Z,17.33
2023-10-20T07:34:10.787Z,25.13
2023-10-20T07:36:42.012Z,12.20
2023-10-20T07:39:10.580Z,11.87
2023-10-20T07:41:38.796Z,13.40
2023-10-20T07:44:10.505Z,16.40
2023-10-20T07:46:38.847Z,13.67
2023-10-20T07:49:06.810Z,9.13
2023-10-20T07:51:34.843Z,12.53
2023-10-20T07:54:04.989Z,10.17
2023-10-20T07:56:33.304Z,13.33
2023-10-20T07:59:01.369Z,10.97
2023-10-20T08:01:29.620Z,10.53
2023-10-20T08:03:58.939Z,11.63
2023-10-20T08:06:27.556Z,12.67
2023-10-20T08:08:56.577Z,11.40
2023-10-20T08:11:26.729Z,9.30
2023-10-20T08:13:56.715Z,11.70
2023-10-20T08:16:25.036Z,12.63
2023-10-20T08:18:53.200Z,10.37
2023-10-20T08:21:21.797Z,11.67
2023-10-20T08:23:50.299Z,8.57
2023-10-20T08:26:21.112Z,7.93
2023-10-20T08:28:51.365Z,11.17
2023-10-20T08:31:20.065Z,9.60
2023-10-20T08:33:49.833Z,8.67
2023-10-20T08:36:18.491Z,8.77
2023-10-20T08:38:49.480Z,9.37
2023-10-20T08:41:20.938Z,8.00
2023-10-20T08:43:51.156Z,10.33
2023-10-20T08:46:20.684Z,8.77
2023-10-20T08:48:49.886Z,6.40
2023-10-20T08:51:20.031Z,8.67
2023-10-20T08:53:48.505Z,10.77
2023-10-20T08:56:17.308Z,7.63
2023-10-20T08:58:48.305Z,7.07
2023-10-20T09:01:18.705Z,8.60
2023-10-20T09:03:49.977Z,8.87
2023-10-20T09:06:18.385Z,7.33
2023-10-20T09:08:48.841Z,8.07
2023-10-20T09:11:17.458Z,10.30
2023-10-20T09:13:47.803Z,8.93
2023-10-20T09:16:17.900Z,7.57
2023-10-20T09:18:48.000Z,14.77
2023-10-20T09:21:16.866Z,8.57
2023-10-20T09:23:56.577Z,11.93
2023-10-20T09:26:25.486Z,10.73
2023-10-20T09:28:56.257Z,26.07
2023-10-20T09:31:28.903Z,8.63
2023-10-20T09:33:57.543Z,11.93
2023-10-20T09:36:28.537Z,10.87
2023-10-20T09:38:59.269Z,11.67
2023-10-20T09:41:30.073Z,12.50
2023-10-20T09:44:07.444Z,9.27
2023-10-20T09:46:56.677Z,11.83
2023-10-20T09:49:27.033Z,13.97
2023-10-20T09:51:56.745Z,13.57
2023-10-20T09:54:35.208Z,8.37
2023-10-20T09:57:07.504Z,10.73
2023-10-20T09:59:35.814Z,9.20
2023-10-20T10:02:05.651Z,9.30
2023-10-20T10:04:39.608Z,7.60
2023-10-20T10:07:10.480Z,11.10
2023-10-20T10:09:39.596Z,7.27
2023-10-20T10:12:13.302Z,7.00
2023-10-20T10:14:41.831Z,6.53
2023-10-20T10:17:12.404Z,10.10
2023-10-20T10:19:51.148Z,6.70
2023-10-20T10:22:20.108Z,5.87
2023-10-20T10:24:55.581Z,6.87
2023-10-20T10:27:28.874Z,9.75
2023-10-20T10:30:00.516Z,10.70
2023-10-20T10:32:34.218Z,13.23
2023-10-20T10:35:04.104Z,8.63
2023-10-20T10:37:34.727Z,9.38
2023-10-20T10:40:11.253Z,8.13
2023-10-20T10:42:44.688Z,7.03
2023-10-20T10:45:23.069Z,7.35
2023-10-20T10:48:05.347Z,12.70
2023-10-20T10:50:34.643Z,7.00
2023-10-20T10:53:04.356Z,8.23
2023-10-20T10:55:33.080Z,8.57
2023-10-20T10:58:04.031Z,6.15
2023-10-20T11:00:32.626Z,12.80
2023-10-20T11:03:06.805Z,12.23
2023-10-20T11:05:36.167Z,10.23
2023-10-20T11:08:06.374Z,8.85
2023-10-20T11:10:36.305Z,12.25
2023-10-20T11:13:08.315Z,9.43
2023-10-20T11:15:37.083Z,6.28
2023-10-20T11:18:09.301Z,8.10
2023-10-20T11:20:41.759Z,9.82
2023-10-20T11:23:12.695Z,9.13
2023-10-20T11:25:43.491Z,8.27
2023-10-20T11:28:11.785Z,9.73
2023-10-20T11:30:43.483Z,8.73
2023-10-20T11:33:16.803Z,8.90
2023-10-20T11:35:45.767Z,8.70
2023-10-20T11:38:15.884Z,8.63
2023-10-20T11:40:44.248Z,7.75
2023-10-20T11:43:13.566Z,6.70
2023-10-20T11:45:42.273Z,9.85
2023-10-20T11:48:10.471Z,10.00
2023-10-20T11:50:40.360Z,14.40
2023-10-20T11:53:09.666Z,8.52
2023-10-20T11:55:37.973Z,6.88
2023-10-20T11:58:06.069Z,10.52
2023-10-20T12:00:34.833Z,6.57
2023-10-20T12:03:03.334Z,7.30
2023-10-20T12:05:38.229Z,7.00
2023-10-20T12:08:08.295Z,14.43
2023-10-20T12:10:36.769Z,8.70
2023-10-20T12:13:05.853Z,10.73
2023-10-20T12:15:33.774Z,8.63
2023-10-20T12:18:02.219Z,12.05
2023-10-20T12:20:32.216Z,11.13
2023-10-20T12:23:01.075Z,8.60
2023-10-20T12:25:34.026Z,11.73
2023-10-20T12:28:02.895Z,7.68
2023-10-20T12:30:31.083Z,8.77
2023-10-20T12:32:59.439Z,10.00
2023-10-20T12:35:27.727Z,7.57
2023-10-20T12:37:55.824Z,9.35
2023-10-20T12:40:23.802Z,10.40
2023-10-20T12:42:54.144Z,7.85
2023-10-20T12:45:22.221Z,11.75
2023-10-20T12:47:50.721Z,12.93
2023-10-20T12:50:20.621Z,8.80
2023-10-20T12:52:48.838Z,10.02
2023-10-20T12:55:17.142Z,8.93
2023-10-20T12:57:45.631Z,14.38
2023-10-20T13:00:17.489Z,8.95
2023-10-20T13:02:47.049Z,14.27
2023-10-20T13:05:16.334Z,5.95
2023-10-20T13:07:44.601Z,6.18
2023-10-20T13:10:13.875Z,7.13
2023-10-20T13:12:42.030Z,7.60
2023-10-20T13:15:11.424Z,8.73
2023-10-20T13:17:41.372Z,12.00
2023-10-20T13:20:13.030Z,8.32
2023-10-20T13:22:41.274Z,9.63
2023-10-20T13:25:12.471Z,11.95
2023-10-20T13:27:42.409Z,13.55
2023-10-20T13:30:13.820Z,9.50
2023-10-20T13:32:44.243Z,10.13
2023-10-20T13:35:12.659Z,11.98
2023-10-20T13:37:41.323Z,10.48
2023-10-20T13:40:12.023Z,7.70
2023-10-20T13:42:41.200Z,13.95
2023-10-20T13:45:10.052Z,13.63
2023-10-20T13:47:38.523Z,12.30
2023-10-20T13:50:10.547Z,9.27
2023-10-20T13:52:39.797Z,12.82
2023-10-20T13:55:09.343Z,18.52
2023-10-20T13:57:39.806Z,10.70
2023-10-20T14:00:09.672Z,12.77
2023-10-20T14:02:38.754Z,11.20
2023-10-20T14:05:09.312Z,10.88
2023-10-20T14:07:37.938Z,12.82
2023-10-20T14:10:07.271Z,9.65
2023-10-20T14:12:36.900Z,10.60
2023-10-20T14:15:05.534Z,8.65
2023-10-20T14:17:33.933Z,13.00
2023-10-20T14:20:02.169Z,8.57
2023-10-20T14:22:31.931Z,14.38
2023-10-20T14:25:01.057Z,10.85
2023-10-20T14:27:29.187Z,13.43
2023-10-20T14:29:57.392Z,6.80
2023-10-20T14:32:26.675Z,8.95
2023-10-20T14:34:54.911Z,8.02
2023-10-20T14:37:23.243Z,10.32
2023-10-20T14:39:54.155Z,14.15
2023-10-20T14:42:22.931Z,18.73
2023-10-20T14:44:51.789Z,8.98
2023-10-20T14:47:20.111Z,6.72
2023-10-20T14:49:48.082Z,12.70
2023-10-20T14:52:17.439Z,17.08
2023-10-20T14:54:45.574Z,7.70
2023-10-20T14:57:15.067Z,9.50
2023-10-20T14:59:43.507Z,11.55
2023-10-20T15:02:11.897Z,7.82
2023-10-20T15:04:40.285Z,10.40
2023-10-20T15:07:08.500Z,15.00
2023-10-20T15:09:37.087Z,6.93
2023-10-20T15:12:05.904Z,8.93
2023-10-20T15:14:35.942Z,10.18
2023-10-20T15:17:04.291Z,7.85
2023-10-20T15:19:32.556Z,12.07
2023-10-20T15:22:01.770Z,5.78
2023-10-20T15:24:29.878Z,7.40
2023-10-20T15:26:58.228Z,14.88
2023-10-20T15:29:26.394Z,12.02
2023-10-20T15:31:56.193Z,19.33
2023-10-20T15:34:24.973Z,6.75
2023-10-20T15:36:53.049Z,9.95
2023-10-20T15:39:36.029Z,7.70
2023-10-20T15:42:08.858Z,7.30
2023-10-20T15:44:36.878Z,8.52
2023-10-20T15:47:06.899Z,11.25
2023-10-20T15:49:35.245Z,12.43
2023-10-20T15:52:04.878Z,10.43
2023-10-20T15:54:38.436Z,11.80
2023-10-20T15:57:07.400Z,9.77
2023-10-20T15:59:35.827Z,11.73
2023-10-20T16:02:04.120Z,9.13
2023-10-20T16:04:34.173Z,8.32
2023-10-20T16:07:03.302Z,15.10
2023-10-20T16:09:31.736Z,9.75
2023-10-20T16:11:59.712Z,16.17
2023-10-20T16:14:28.573Z,12.65
2023-10-20T16:16:56.780Z,9.50
2023-10-20T16:19:24.763Z,11.02
2023-10-20T16:21:55.461Z,11.52
2023-10-20T16:24:24.300Z,9.90
2023-10-20T16:26:52.616Z,10.07
2023-10-20T16:29:20.756Z,15.15
2023-10-20T16:31:48.967Z,10.30
2023-10-20T16:34:19.755Z,12.27
2023-10-20T16:36:47.659Z,9.45
2023-10-20T16:39:19.843Z,10.48
2023-10-20T16:41:48.646Z,10.73
2023-10-20T16:44:18.083Z,10.35
2023-10-20T16:46:46.982Z,12.40
2023-10-20T16:49:16.903Z,8.15
2023-10-20T16:51:47.760Z,11.07
2023-10-20T16:54:18.149Z,11.25
2023-10-20T16:56:47.722Z,12.52
2023-10-20T16:59:16.339Z,14.85
2023-10-20T17:01:45.899Z,8.65
2023-10-20T17:04:16.555Z,8.65
2023-10-20T17:06:46.602Z,8.77
2023-10-20T17:09:14.985Z,11.82
2023-10-20T17:11:44.826Z,7.40
2023-10-20T17:14:13.055Z,16.55
2023-10-20T17:16:44.171Z,16.45
2023-10-20T17:19:12.297Z,9.82
2023-10-20T17:21:40.354Z,19.42
2023-10-20T17:24:11.469Z,8.77
2023-10-20T17:26:40.761Z,8.10
2023-10-20T17:29:10.743Z,11.55
2023-10-20T17:31:38.810Z,8.95
2023-10-20T17:34:07.462Z,9.43
2023-10-20T17:36:37.126Z,9.43
2023-10-20T17:39:07.601Z,5.95
2023-10-20T17:41:35.832Z,5.47
2023-10-20T17:44:04.075Z,7.18
2023-10-20T17:46:34.071Z,13.30
2023-10-20T17:49:02.244Z,9.00
2023-10-20T17:51:30.862Z,13.20
2023-10-20T17:53:59.704Z,13.02
2023-10-20T17:56:28.461Z,6.43
2023-10-20T17:58:56.655Z,5.65
2023-10-20T18:01:24.947Z,8.60
2023-10-20T18:03:54.843Z,10.32
2023-10-20T18:06:23.978Z,10.23
2023-10-20T18:08:53.397Z,6.25
2023-10-20T18:11:22.785Z,8.45
2023-10-20T18:13:52.759Z,12.82
2023-10-20T18:16:22.776Z,7.55
2023-10-20T18:18:52.268Z,8.57
2023-10-20T18:21:23.500Z,11.00
2023-10-20T18:23:54.548Z,12.80
2023-10-20T18:26:25.010Z,13.32
2023-10-20T18:28:53.233Z,8.25
2023-10-20T18:31:22.861Z,10.48
2023-10-20T18:33:52.563Z,9.10
2023-10-20T18:36:22.136Z,11.73
2023-10-20T18:38:51.693Z,10.10
2023-10-20T18:41:22.077Z,6.93
2023-10-20T18:43:50.188Z,8.77
2023-10-20T18:46:19.535Z,9.98
2023-10-20T18:48:49.710Z,8.15
2023-10-20T18:51:17.898Z,9.65
2023-10-20T18:53:47.822Z,13.43
2023-10-20T18:56:16.233Z,13.17
2023-10-20T18:58:47.126Z,9.32
2023-10-20T19:01:16.154Z,4.90
2023-10-20T19:03:44.627Z,9.03
2023-10-20T19:06:14.173Z,9.30
2023-10-20T19:08:44.004Z,11.50
2023-10-20T19:11:13.959Z,8.77
2023-10-20T19:13:42.538Z,8.93
2023-10-20T19:16:10.979Z,9.30
2023-10-20T19:18:39.467Z,7.47
2023-10-20T19:21:12.022Z,8.07
2023-10-20T19:23:40.653Z,7.00
2023-10-20T19:26:11.532Z,7.47
2023-10-20T19:28:41.719Z,10.90
2023-10-20T19:31:10.946Z,5.78
2023-10-20T19:33:40.533Z,10.67
2023-10-20T19:36:10.750Z,6.70
2023-10-20T19:38:42.120Z,11.67
2023-10-20T19:41:13.361Z,11.03
2023-10-20T19:43:43.082Z,9.17
2023-10-20T19:46:11.180Z,7.13
2023-10-20T19:48:39.480Z,8.97
2023-10-20T19:51:08.904Z,13.47
2023-10-20T19:53:36.900Z,11.73
2023-10-20T19:56:05.066Z,10.53
2023-10-20T19:58:33.601Z,10.00
2023-10-20T20:01:04.772Z,10.43
2023-10-20T20:03:33.942Z,9.43
2023-10-20T20:06:11.465Z,7.93
2023-10-20T20:08:39.912Z,7.83
2023-10-20T20:11:09.973Z,10.17
2023-10-20T20:13:38.686Z,12.63
2023-10-20T20:16:11.041Z,7.87
2023-10-20T20:18:40.611Z,8.90
2023-10-20T20:21:10.703Z,10.43
2023-10-20T20:23:39.105Z,8.43
2023-10-20T20:26:08.049Z,8.70
2023-10-20T20:28:36.582Z,5.57
2023-10-20T20:31:05.801Z,12.03
2023-10-20T20:33:36.378Z,11.10
2023-10-20T20:36:05.594Z,14.57
2023-10-20T20:38:33.944Z,8.90
2023-10-20T20:41:06.709Z,8.77
2023-10-20T20:43:35.257Z,9.80
2023-10-20T20:46:03.475Z,8.17
2023-10-20T20:48:32.577Z,9.67
2023-10-20T20:51:02.347Z,5.60
2023-10-20T20:53:30.714Z,12.33
2023-10-20T20:55:58.935Z,9.93
2023-10-20T20:58:27.524Z,8.67
2023-10-20T21:00:56.431Z,6.80
2023-10-20T21:03:24.772Z,12.53
2023-10-20T21:06:01.611Z,6.97
2023-10-20T21:08:30.057Z,10.43
2023-10-20T21:11:07.280Z,10.37
2023-10-20T21:13:35.433Z,12.10
2023-10-20T21:16:06.530Z,8.97
2023-10-20T21:18:36.643Z,9.97
2023-10-20T21:21:14.265Z,8.70
2023-10-20T21:23:42.548Z,9.37
2023-10-20T21:26:10.768Z,8.90
2023-10-20T21:28:39.524Z,10.43
2023-10-20T21:31:08.323Z,9.33
2023-10-20T21:33:37.448Z,13.23
2023-10-20T21:36:07.436Z,13.60
2023-10-20T21:38:35.629Z,11.77
2023-10-20T21:41:05.508Z,6.20
2023-10-20T21:43:34.436Z,8.33
2023-10-20T21:46:05.028Z,10.27
2023-10-20T21:48:33.483Z,8.00
2023-10-20T21:51:11.667Z,10.97
2023-10-20T21:53:42.942Z,12.47
2023-10-20T21:56:12.615Z,10.33
2023-10-20T21:58:41.143Z,10.33
2023-10-20T22:01:11.460Z,11.97
2023-10-20T22:03:40.309Z,8.50
2023-10-20T22:06:10.808Z,5.73
2023-10-20T22:08:40.446Z,9.00
2023-10-20T22:11:08.914Z,13.33
2023-10-20T22:13:36.947Z,11.93
2023-10-20T22:16:05.829Z,8.40
2023-10-20T22:18:34.248Z,12.93
2023-10-20T22:21:02.700Z,8.87
2023-10-20T22:23:31.133Z,10.80
2023-10-20T22:26:00.636Z,7.93
2023-10-20T22:28:35.862Z,7.50
2023-10-20T22:31:04.392Z,9.00
2023-10-20T22:33:33.287Z,7.97
2023-10-20T22:36:01.786Z,11.43
2023-10-20T22:38:30.149Z,9.57
2023-10-20T22:40:58.408Z,10.33
2023-10-20T22:43:27.990Z,7.70
2023-10-20T22:45:55.945Z,6.73
2023-10-20T22:48:24.041Z,9.53
2023-10-20T22:50:52.172Z,6.43
2023-10-20T22:53:20.289Z,8.70
2023-10-20T22:55:48.283Z,7.63
2023-10-20T22:58:16.588Z,8.53
2023-10-20T23:00:46.356Z,11.80
2023-10-20T23:03:14.767Z,5.60
2023-10-20T23:05:42.859Z,8.20
2023-10-20T23:08:11.393Z,5.97
2023-10-20T23:10:40.372Z,6.00
2023-10-20T23:13:09.701Z,6.37
2023-10-20T23:15:41.776Z,6.93
2023-10-20T23:18:13.907Z,9.33
2023-10-20T23:20:43.866Z,5.33
2023-10-20T23:23:12.145Z,9.93
2023-10-20T23:25:40.094Z,10.50
2023-10-20T23:28:09.407Z,9.60
2023-10-20T23:30:38.029Z,8.03
2023-10-20T23:33:07.155Z,5.60
2023-10-20T23:35:37.057Z,9.47
2023-10-20T23:38:07.041Z,12.67
2023-10-20T23:40:35.116Z,8.83
2023-10-20T23:43:03.100Z,4.63
2023-10-20T23:45:31.522Z,9.20
2023-10-20T23:47:59.698Z,10.87
2023-10-20T23:50:30.570Z,8.73
2023-10-20T23:53:00.392Z,8.80
2023-10-20T23:55:28.968Z,7.33
2023-10-20T23:57:57.573Z,8.70
